Saint Louis, Missouri
Traffic Map
Current Weather Conditions
Saint Louis, Missouri
Clear
Clear
19°
Feels Like: 19°
Wind Chill: 19° Ceiling: Unl
Heat Index: 19° Visibility: 10mi
Dew Point: 17° Wind: 3mph
Humidity: 84% Direction: 150° (SSE)
Pressure: 30.12in Gusts: 0mph
Raw Report DataKCPS 281353Z 15003KT 10SM CLR 19/17 A3012 RMK AO2 SLP198 T01940167
Traffic Incident Summary
Active as of:
Severity:
Category:
InformationThere was an issue retrieving the traffic information for this location. Please try a different location or try again shortly.
Advertisements
Track Severe Weather on mobile